createdAt,value
2019-05-26T00:01:02.745Z,8.77
2019-05-26T00:03:10.790Z,8.63
2019-05-26T00:05:18.468Z,9.27
2019-05-26T00:07:30.665Z,9.37
2019-05-26T00:09:35.219Z,9.20
2019-05-26T00:11:42.732Z,9.73
2019-05-26T00:13:50.327Z,9.40
2019-05-26T00:15:57.864Z,9.40
2019-05-26T00:18:05.313Z,9.13
2019-05-26T00:20:14.178Z,9.50
2019-05-26T00:22:21.654Z,9.47
2019-05-26T00:24:29.203Z,9.87
2019-05-26T00:26:36.646Z,10.03
2019-05-26T00:28:44.198Z,9.90
2019-05-26T00:30:51.660Z,9.90
2019-05-26T00:32:59.230Z,9.97
2019-05-26T00:35:07.992Z,9.87
2019-05-26T00:37:15.551Z,10.23
2019-05-26T00:39:23.209Z,9.83
2019-05-26T00:41:30.802Z,10.00
2019-05-26T00:43:38.216Z,9.37
2019-05-26T00:45:45.632Z,10.10
2019-05-26T00:47:52.989Z,9.73
2019-05-26T00:50:00.606Z,9.93
2019-05-26T00:52:08.721Z,10.20
2019-05-26T00:54:16.140Z,9.10
2019-05-26T00:56:23.760Z,10.03
2019-05-26T00:58:31.233Z,9.83
2019-05-26T01:00:43.119Z,10.67
2019-05-26T01:02:50.531Z,10.27
2019-05-26T01:04:58.042Z,10.13
2019-05-26T01:07:05.455Z,9.63
2019-05-26T01:09:12.874Z,10.33
2019-05-26T01:11:20.289Z,9.90
2019-05-26T01:13:27.756Z,9.80
2019-05-26T01:15:35.128Z,9.37
2019-05-26T01:17:42.454Z,9.50
2019-05-26T01:19:49.872Z,9.43
2019-05-26T01:21:57.234Z,10.17
2019-05-26T01:24:04.761Z,9.90
2019-05-26T01:26:12.137Z,9.40
2019-05-26T01:28:19.669Z,9.10
2019-05-26T01:30:37.814Z,9.73
2019-05-26T01:32:45.183Z,9.67
2019-05-26T01:34:52.558Z,9.80
2019-05-26T01:37:00.660Z,9.17
2019-05-26T01:39:09.807Z,9.03
2019-05-26T01:41:17.246Z,9.37
2019-05-26T01:43:24.680Z,9.50
2019-05-26T01:45:32.073Z,9.83
2019-05-26T01:47:39.417Z,9.67
2019-05-26T01:49:46.863Z,9.33
2019-05-26T01:51:54.178Z,9.33
2019-05-26T01:54:01.549Z,9.80
2019-05-26T01:56:08.991Z,9.80
2019-05-26T01:58:16.374Z,10.50
2019-05-26T02:00:24.306Z,10.00
2019-05-26T02:02:31.638Z,10.37
2019-05-26T02:04:39.037Z,10.27
2019-05-26T02:06:46.512Z,9.77
2019-05-26T02:08:54.063Z,9.50
2019-05-26T02:11:01.481Z,10.40
2019-05-26T02:13:08.845Z,9.83
2019-05-26T02:15:17.830Z,9.87
2019-05-26T02:17:25.273Z,10.13
2019-05-26T02:19:32.645Z,10.60
2019-05-26T02:21:40.122Z,10.77
2019-05-26T02:23:47.497Z,10.73
2019-05-26T02:25:54.900Z,10.10
2019-05-26T02:28:02.292Z,10.43
2019-05-26T02:30:10.430Z,10.83
2019-05-26T02:32:17.765Z,11.83
2019-05-26T02:34:25.221Z,11.83
2019-05-26T02:36:32.586Z,10.30
2019-05-26T02:38:59.709Z,10.87
2019-05-26T02:40:49.134Z,9.93
2019-05-26T02:42:56.535Z,10.80
2019-05-26T02:45:04.074Z,10.83
2019-05-26T02:47:11.668Z,10.33
2019-05-26T02:49:19.015Z,10.17
2019-05-26T02:51:26.407Z,9.87
2019-05-26T02:53:33.855Z,10.30
2019-05-26T02:55:41.246Z,10.73
2019-05-26T02:57:48.804Z,10.50
2019-05-26T02:59:56.304Z,10.50
2019-05-26T03:02:04.848Z,10.50
2019-05-26T03:04:13.230Z,10.80
2019-05-26T03:06:23.451Z,11.00
2019-05-26T03:08:31.525Z,11.27
2019-05-26T03:10:41.227Z,11.23
2019-05-26T03:12:51.458Z,10.80
2019-05-26T03:15:01.202Z,10.53
2019-05-26T03:17:08.835Z,11.20
2019-05-26T03:19:19.935Z,10.83
2019-05-26T03:21:30.049Z,11.00
2019-05-26T03:23:37.865Z,10.43
2019-05-26T03:25:45.581Z,10.60
2019-05-26T03:27:53.034Z,10.80
2019-05-26T03:30:00.504Z,10.47
2019-05-26T03:32:07.896Z,10.73
2019-05-26T03:34:15.257Z,11.00
2019-05-26T03:36:22.734Z,11.00
2019-05-26T03:38:30.146Z,10.30
2019-05-26T03:40:37.814Z,11.20
2019-05-26T03:42:45.413Z,11.03
2019-05-26T03:44:52.952Z,10.97
2019-05-26T03:47:00.404Z,10.63
2019-05-26T03:49:07.759Z,10.53
2019-05-26T03:51:16.062Z,11.17
2019-05-26T03:53:23.484Z,11.00
2019-05-26T03:55:31.280Z,11.37
2019-05-26T03:57:38.745Z,11.23
2019-05-26T03:59:46.179Z,11.17
2019-05-26T04:01:57.464Z,10.90
2019-05-26T04:04:02.611Z,10.53
2019-05-26T04:06:10.426Z,9.27
2019-05-26T04:08:17.836Z,11.10
2019-05-26T04:10:25.290Z,10.50
2019-05-26T04:12:33.207Z,10.80
2019-05-26T04:14:40.772Z,10.07
2019-05-26T04:16:48.315Z,10.43
2019-05-26T04:18:55.780Z,10.13
2019-05-26T04:21:03.620Z,10.27
2019-05-26T04:23:11.033Z,10.00
2019-05-26T04:25:18.618Z,9.77
2019-05-26T04:27:26.139Z,9.70
2019-05-26T04:29:34.501Z,9.93
2019-05-26T04:31:41.865Z,9.23
2019-05-26T04:33:49.294Z,9.53
2019-05-26T04:35:56.743Z,9.87
2019-05-26T04:38:04.116Z,9.00
2019-05-26T04:40:25.881Z,9.23
2019-05-26T04:42:21.063Z,9.50
2019-05-26T04:44:28.490Z,9.00
2019-05-26T04:46:35.963Z,10.20
2019-05-26T04:48:43.388Z,10.17
2019-05-26T04:50:50.818Z,10.43
2019-05-26T04:53:06.309Z,10.00
2019-05-26T04:55:07.705Z,9.80
2019-05-26T04:57:16.153Z,9.20
2019-05-26T04:59:23.593Z,10.43
2019-05-26T05:01:31.085Z,13.00
2019-05-26T05:03:38.611Z,14.47
2019-05-26T05:05:46.275Z,11.70
2019-05-26T05:07:53.916Z,9.07
2019-05-26T05:10:01.317Z,8.97
2019-05-26T05:12:08.729Z,11.17
2019-05-26T05:14:16.177Z,11.57
2019-05-26T05:16:23.685Z,9.37
2019-05-26T05:18:31.124Z,9.97
2019-05-26T05:20:38.555Z,9.03
2019-05-26T05:22:46.010Z,7.97
2019-05-26T05:24:53.375Z,8.20
2019-05-26T05:27:00.890Z,7.63
2019-05-26T05:29:08.446Z,7.70
2019-05-26T05:31:15.885Z,7.13
2019-05-26T05:33:23.974Z,7.13
2019-05-26T05:35:31.453Z,6.83
2019-05-26T05:37:38.920Z,6.40
2019-05-26T05:39:46.530Z,6.30
2019-05-26T05:41:54.141Z,6.50
2019-05-26T05:44:01.823Z,5.83
2019-05-26T05:46:09.288Z,6.83
2019-05-26T05:48:16.828Z,6.20
2019-05-26T05:50:24.581Z,6.27
2019-05-26T05:52:32.182Z,6.17
2019-05-26T05:54:39.798Z,5.53
2019-05-26T05:56:47.326Z,5.73
2019-05-26T05:58:55.180Z,5.33
2019-05-26T06:01:03.061Z,5.77
2019-05-26T06:03:11.271Z,5.70
2019-05-26T06:05:19.236Z,5.47
2019-05-26T06:07:26.693Z,5.07
2019-05-26T06:09:34.311Z,5.90
2019-05-26T06:11:41.760Z,5.83
2019-05-26T06:13:49.434Z,5.90
2019-05-26T06:15:57.045Z,5.33
2019-05-26T06:18:04.761Z,5.20
2019-05-26T06:20:14.949Z,5.20
2019-05-26T06:22:22.776Z,5.13
2019-05-26T06:24:31.354Z,4.90
2019-05-26T06:26:39.207Z,5.03
2019-05-26T06:28:46.908Z,4.87
2019-05-26T06:30:54.688Z,4.97
2019-05-26T06:33:02.261Z,4.60
2019-05-26T06:35:11.756Z,4.90
2019-05-26T06:37:19.679Z,4.27
2019-05-26T06:39:28.197Z,5.40
2019-05-26T06:41:35.811Z,4.50
2019-05-26T06:43:43.443Z,4.97
2019-05-26T06:45:51.121Z,4.40
2019-05-26T06:47:59.005Z,4.83
2019-05-26T06:50:07.296Z,4.97
2019-05-26T06:52:14.828Z,5.95
2019-05-26T06:54:22.403Z,4.20
2019-05-26T06:56:29.891Z,4.27
2019-05-26T06:58:37.461Z,4.37
2019-05-26T07:00:44.948Z,4.40
2019-05-26T07:02:52.604Z,4.00
2019-05-26T07:05:00.160Z,4.47
2019-05-26T07:07:07.718Z,3.30
2019-05-26T07:09:15.223Z,3.70
2019-05-26T07:11:22.880Z,3.10
2019-05-26T07:13:30.357Z,3.33
2019-05-26T07:15:37.858Z,2.93
2019-05-26T07:17:45.531Z,3.50
2019-05-26T07:19:53.088Z,3.98
2019-05-26T07:22:00.790Z,3.10
2019-05-26T07:24:09.179Z,3.20
2019-05-26T07:26:16.916Z,3.67
2019-05-26T07:28:25.269Z,2.70
2019-05-26T07:30:33.218Z,3.70
2019-05-26T07:32:40.879Z,2.80
2019-05-26T07:34:48.363Z,3.83
2019-05-26T07:36:55.884Z,2.63
2019-05-26T07:39:03.756Z,2.90
2019-05-26T07:41:11.327Z,4.00
2019-05-26T07:43:18.773Z,3.50
2019-05-26T07:45:26.332Z,3.43
2019-05-26T07:47:33.792Z,3.43
2019-05-26T07:49:41.306Z,3.23
2019-05-26T07:51:48.719Z,3.83
2019-05-26T07:53:56.428Z,3.07
2019-05-26T07:56:03.885Z,2.90
2019-05-26T07:58:11.364Z,2.93
2019-05-26T08:00:20.205Z,3.67
2019-05-26T08:02:27.808Z,3.27
2019-05-26T08:04:35.351Z,3.37
2019-05-26T08:06:42.809Z,2.80
2019-05-26T08:08:50.457Z,4.00
2019-05-26T08:10:58.110Z,4.43
2019-05-26T08:13:05.679Z,3.80
2019-05-26T08:15:13.865Z,4.00
2019-05-26T08:17:21.305Z,3.50
2019-05-26T08:19:28.719Z,3.27
2019-05-26T08:21:36.373Z,3.63
2019-05-26T08:23:43.946Z,3.33
2019-05-26T08:25:51.546Z,3.70
2019-05-26T08:27:59.111Z,3.12
2019-05-26T08:30:07.108Z,3.50
2019-05-26T08:32:15.236Z,8.93
2019-05-26T08:34:23.025Z,3.10
2019-05-26T08:36:30.620Z,4.00
2019-05-26T08:38:38.327Z,3.27
2019-05-26T08:40:45.815Z,3.70
2019-05-26T08:42:54.125Z,5.10
2019-05-26T08:45:01.890Z,4.87
2019-05-26T08:47:09.611Z,3.50
2019-05-26T08:49:18.383Z,3.80
2019-05-26T08:51:26.685Z,3.42
2019-05-26T08:53:34.482Z,3.77
2019-05-26T08:55:42.208Z,4.37
2019-05-26T08:57:50.208Z,4.00
2019-05-26T08:59:58.100Z,3.53
2019-05-26T09:02:06.222Z,4.08
2019-05-26T09:04:14.915Z,6.73
2019-05-26T09:06:22.596Z,3.90
2019-05-26T09:08:30.242Z,3.27
2019-05-26T09:10:37.855Z,3.23
2019-05-26T09:12:59.687Z,3.20
2019-05-26T09:14:55.837Z,5.20
2019-05-26T09:17:03.972Z,4.58
2019-05-26T09:19:11.547Z,3.30
2019-05-26T09:21:19.069Z,3.08
2019-05-26T09:23:26.664Z,2.63
2019-05-26T09:25:34.184Z,3.03
2019-05-26T09:27:41.651Z,2.98
2019-05-26T09:29:49.257Z,2.83
2019-05-26T09:31:57.825Z,3.12
2019-05-26T09:34:05.736Z,2.90
2019-05-26T09:36:13.606Z,2.80
2019-05-26T09:38:22.031Z,2.83
2019-05-26T09:40:29.507Z,3.30
2019-05-26T09:42:37.015Z,2.50
2019-05-26T09:44:44.678Z,2.77
2019-05-26T09:46:52.621Z,2.83
2019-05-26T09:49:01.061Z,3.12
2019-05-26T09:51:08.794Z,3.10
2019-05-26T09:53:16.535Z,3.10
2019-05-26T09:55:25.560Z,3.25
2019-05-26T09:57:33.256Z,3.02
2019-05-26T09:59:40.798Z,3.00
2019-05-26T10:01:48.506Z,3.27
2019-05-26T10:03:57.108Z,3.15
2019-05-26T10:06:04.671Z,3.33
2019-05-26T10:08:12.456Z,3.55
2019-05-26T10:10:20.501Z,3.10
2019-05-26T10:12:28.002Z,3.30
2019-05-26T10:14:35.763Z,3.35
2019-05-26T10:16:43.211Z,3.12
2019-05-26T10:18:51.124Z,5.47
2019-05-26T10:20:58.566Z,6.40
2019-05-26T10:23:06.182Z,3.75
2019-05-26T10:25:13.850Z,3.50
2019-05-26T10:27:21.769Z,3.77
2019-05-26T10:29:29.341Z,3.25
2019-05-26T10:31:36.800Z,4.03
2019-05-26T10:33:44.458Z,3.12
2019-05-26T10:35:51.988Z,3.42
2019-05-26T10:37:59.579Z,3.60
2019-05-26T10:40:09.452Z,4.00
2019-05-26T10:42:16.933Z,3.33
2019-05-26T10:44:24.472Z,3.22
2019-05-26T10:46:31.964Z,4.28
2019-05-26T10:48:39.538Z,4.00
2019-05-26T10:50:47.131Z,4.25
2019-05-26T10:52:54.669Z,4.20
2019-05-26T10:55:02.261Z,5.22
2019-05-26T10:57:09.902Z,4.00
2019-05-26T10:59:17.366Z,4.05
2019-05-26T11:01:25.132Z,6.70
2019-05-26T11:03:32.613Z,3.62
2019-05-26T11:05:40.100Z,3.45
2019-05-26T11:07:47.640Z,5.10
2019-05-26T11:09:55.190Z,4.85
2019-05-26T11:12:02.806Z,3.98
2019-05-26T11:14:10.544Z,3.75
2019-05-26T11:16:18.071Z,3.58
2019-05-26T11:18:25.564Z,3.75
2019-05-26T11:20:33.093Z,3.60
2019-05-26T11:22:40.710Z,4.05
2019-05-26T11:24:48.320Z,4.40
2019-05-26T11:27:07.035Z,4.85
2019-05-26T11:29:05.327Z,6.70
2019-05-26T11:31:12.998Z,10.05
2019-05-26T11:33:20.510Z,6.08
2019-05-26T11:35:28.132Z,6.33
2019-05-26T11:37:35.707Z,5.00
2019-05-26T11:39:43.271Z,5.05
2019-05-26T11:41:54.876Z,5.33
2019-05-26T11:44:00.205Z,5.37
2019-05-26T11:46:07.683Z,4.72
2019-05-26T11:48:15.233Z,5.00
2019-05-26T11:50:22.931Z,4.40
2019-05-26T11:52:30.755Z,6.45
2019-05-26T11:54:38.350Z,3.98
2019-05-26T11:56:46.449Z,9.18
2019-05-26T11:58:54.499Z,5.22
2019-05-26T12:01:01.908Z,4.45
2019-05-26T12:03:09.426Z,5.40
2019-05-26T12:05:18.163Z,5.40
2019-05-26T12:07:25.811Z,5.05
2019-05-26T12:09:33.300Z,4.75
2019-05-26T12:11:41.072Z,4.80
2019-05-26T12:13:48.569Z,4.30
2019-05-26T12:15:56.133Z,5.00
2019-05-26T12:18:03.642Z,4.72
2019-05-26T12:20:12.201Z,4.62
2019-05-26T12:22:20.401Z,4.65
2019-05-26T12:24:28.672Z,7.37
2019-05-26T12:26:36.834Z,5.45
2019-05-26T12:28:44.466Z,4.30
2019-05-26T12:30:52.212Z,4.55
2019-05-26T12:32:59.890Z,4.75
2019-05-26T12:35:08.858Z,4.40
2019-05-26T12:37:16.686Z,5.53
2019-05-26T12:39:24.436Z,4.72
2019-05-26T12:41:34.981Z,4.75
2019-05-26T12:43:41.349Z,4.28
2019-05-26T12:45:49.934Z,4.03
2019-05-26T12:47:58.534Z,4.30
2019-05-26T12:50:07.388Z,4.60
2019-05-26T12:52:15.227Z,7.15
2019-05-26T12:54:22.958Z,5.03
2019-05-26T12:56:30.562Z,4.65
2019-05-26T12:58:38.224Z,4.58
2019-05-26T13:00:49.747Z,4.15
2019-05-26T13:02:56.129Z,4.28
2019-05-26T13:05:03.944Z,4.70
2019-05-26T13:07:11.500Z,4.85
2019-05-26T13:09:19.424Z,4.85
2019-05-26T13:11:27.285Z,4.83
2019-05-26T13:13:34.801Z,5.60
2019-05-26T13:15:42.747Z,4.62
2019-05-26T13:17:50.746Z,4.80
2019-05-26T13:19:59.300Z,4.80
2019-05-26T13:22:07.460Z,4.80
2019-05-26T13:24:18.517Z,4.67
2019-05-26T13:26:24.571Z,4.95
2019-05-26T13:28:32.358Z,4.40
2019-05-26T13:30:40.210Z,4.37
2019-05-26T13:32:48.133Z,4.53
2019-05-26T13:34:56.010Z,5.95
2019-05-26T13:37:03.692Z,9.23
2019-05-26T13:39:12.060Z,7.95
2019-05-26T13:41:19.699Z,5.40
2019-05-26T13:43:27.771Z,5.17
2019-05-26T13:45:35.276Z,4.58
2019-05-26T13:47:43.018Z,4.80
2019-05-26T13:49:50.776Z,5.20
2019-05-26T13:51:58.572Z,5.03
2019-05-26T13:54:06.344Z,5.62
2019-05-26T13:56:14.114Z,5.45
2019-05-26T13:58:22.557Z,4.72
2019-05-26T14:00:30.383Z,5.08
2019-05-26T14:02:38.177Z,4.87
2019-05-26T14:04:46.002Z,3.90
2019-05-26T14:06:53.920Z,4.67
2019-05-26T14:09:02.381Z,4.78
2019-05-26T14:11:10.094Z,4.75
2019-05-26T14:13:17.810Z,4.20
2019-05-26T14:15:37.441Z,3.80
2019-05-26T14:17:36.719Z,4.30
2019-05-26T14:19:49.054Z,3.87
2019-05-26T14:21:56.794Z,3.77
2019-05-26T14:24:05.617Z,3.87
2019-05-26T14:26:13.182Z,3.55
2019-05-26T14:28:20.797Z,3.70
2019-05-26T14:30:28.643Z,4.35
2019-05-26T14:32:36.381Z,5.05
2019-05-26T14:34:44.828Z,4.45
2019-05-26T14:36:52.822Z,4.40
2019-05-26T14:39:00.373Z,4.22
2019-05-26T14:41:08.319Z,4.00
2019-05-26T14:43:15.922Z,3.83
2019-05-26T14:45:24.712Z,3.62
2019-05-26T14:47:32.883Z,3.40
2019-05-26T14:49:40.494Z,3.70
2019-05-26T14:51:48.295Z,3.95
2019-05-26T14:53:56.932Z,3.22
2019-05-26T14:56:04.524Z,4.05
2019-05-26T14:58:15.997Z,4.05
2019-05-26T15:00:23.484Z,3.98
2019-05-26T15:02:31.306Z,5.25
2019-05-26T15:04:39.132Z,4.25
2019-05-26T15:06:49.052Z,5.70
2019-05-26T15:08:56.907Z,4.30
2019-05-26T15:11:05.117Z,4.42
2019-05-26T15:13:13.645Z,3.27
2019-05-26T15:15:22.437Z,3.20
2019-05-26T15:17:32.441Z,3.47
2019-05-26T15:19:40.255Z,4.50
2019-05-26T15:21:47.865Z,6.42
2019-05-26T15:23:56.527Z,5.08
2019-05-26T15:26:05.504Z,3.40
2019-05-26T15:28:13.305Z,3.47
2019-05-26T15:30:21.216Z,3.10
2019-05-26T15:32:29.011Z,3.25
2019-05-26T15:34:36.681Z,3.30
2019-05-26T15:36:44.285Z,3.92
2019-05-26T15:38:51.998Z,3.00
2019-05-26T15:40:59.587Z,3.70
2019-05-26T15:43:07.393Z,3.42
2019-05-26T15:45:17.590Z,3.87
2019-05-26T15:47:25.283Z,3.70
2019-05-26T15:49:33.201Z,3.33
2019-05-26T15:51:40.884Z,3.40
2019-05-26T15:53:48.813Z,3.27
2019-05-26T15:55:56.413Z,3.30
2019-05-26T15:58:04.128Z,3.70
2019-05-26T16:00:14.466Z,7.00
2019-05-26T16:02:22.233Z,3.75
2019-05-26T16:04:29.842Z,5.53
2019-05-26T16:06:37.485Z,3.90
2019-05-26T16:08:44.991Z,3.33
2019-05-26T16:10:52.524Z,3.30
2019-05-26T16:13:00.258Z,3.17
2019-05-26T16:15:09.026Z,3.10
2019-05-26T16:17:16.748Z,3.40
2019-05-26T16:19:24.404Z,3.27
2019-05-26T16:21:32.095Z,4.47
2019-05-26T16:23:41.261Z,4.37
2019-05-26T16:25:48.727Z,4.80
2019-05-26T16:27:57.394Z,3.98
2019-05-26T16:30:06.819Z,3.87
2019-05-26T16:32:18.476Z,4.30
2019-05-26T16:34:24.299Z,3.72
2019-05-26T16:36:31.976Z,2.98
2019-05-26T16:38:39.963Z,3.40
2019-05-26T16:40:47.580Z,3.50
2019-05-26T16:42:55.278Z,3.33
2019-05-26T16:45:03.243Z,4.37
2019-05-26T16:47:10.782Z,4.55
2019-05-26T16:49:19.006Z,4.62
2019-05-26T16:51:26.810Z,4.97
2019-05-26T16:53:34.538Z,3.40
2019-05-26T16:55:42.192Z,3.05
2019-05-26T16:57:51.203Z,3.20
2019-05-26T16:59:59.455Z,4.90
2019-05-26T17:02:07.684Z,4.28
2019-05-26T17:04:16.246Z,3.20
2019-05-26T17:06:24.495Z,3.02
2019-05-26T17:08:32.689Z,3.10
2019-05-26T17:10:40.680Z,4.05
2019-05-26T17:12:49.089Z,3.22
2019-05-26T17:14:57.059Z,3.30
2019-05-26T17:17:14.594Z,3.10
2019-05-26T17:19:15.642Z,3.77
2019-05-26T17:21:24.056Z,3.95
2019-05-26T17:23:32.198Z,3.55
2019-05-26T17:25:41.363Z,2.85
2019-05-26T17:27:50.048Z,3.20
2019-05-26T17:30:00.460Z,4.08
2019-05-26T17:32:10.722Z,6.25
2019-05-26T17:34:19.567Z,8.05
2019-05-26T17:36:28.755Z,8.03
2019-05-26T17:38:38.152Z,4.62
2019-05-26T17:40:47.107Z,4.00
2019-05-26T17:42:56.073Z,3.60
2019-05-26T17:45:03.891Z,4.25
2019-05-26T17:47:11.951Z,3.70
2019-05-26T17:49:19.864Z,5.30
2019-05-26T17:51:27.959Z,7.62
2019-05-26T17:53:37.051Z,4.78
2019-05-26T17:55:45.245Z,5.50
2019-05-26T17:57:52.927Z,10.18
2019-05-26T18:00:01.523Z,13.58
2019-05-26T18:02:09.928Z,13.48
2019-05-26T18:04:17.766Z,16.12
2019-05-26T18:06:25.432Z,26.80
2019-05-26T18:08:36.271Z,36.93
2019-05-26T18:10:42.761Z,38.08
2019-05-26T18:12:50.460Z,46.55
2019-05-26T18:14:58.120Z,47.83
2019-05-26T18:17:05.698Z,46.18
2019-05-26T18:19:13.305Z,49.03
2019-05-26T18:21:21.343Z,59.67
2019-05-26T18:23:29.048Z,51.58
2019-05-26T18:25:36.968Z,56.73
2019-05-26T18:27:44.759Z,42.80
2019-05-26T18:29:52.491Z,40.38
2019-05-26T18:32:01.107Z,22.40
2019-05-26T18:34:10.862Z,17.23
2019-05-26T18:36:19.145Z,11.70
2019-05-26T18:38:26.918Z,9.18
2019-05-26T18:40:35.171Z,7.60
2019-05-26T18:42:44.026Z,8.28
2019-05-26T18:44:51.757Z,8.55
2019-05-26T18:46:59.657Z,10.78
2019-05-26T18:49:09.897Z,9.58
2019-05-26T18:51:18.346Z,8.73
2019-05-26T18:53:29.502Z,9.28
2019-05-26T18:55:35.578Z,10.35
2019-05-26T18:57:43.511Z,9.58
2019-05-26T18:59:51.328Z,9.93
2019-05-26T19:01:59.265Z,8.93
2019-05-26T19:04:07.777Z,8.80
2019-05-26T19:06:15.642Z,8.75
2019-05-26T19:08:23.312Z,8.38
2019-05-26T19:10:31.143Z,7.47
2019-05-26T19:12:38.906Z,6.95
2019-05-26T19:14:50.658Z,6.75
2019-05-26T19:16:57.005Z,6.50
2019-05-26T19:19:05.615Z,5.78
2019-05-26T19:21:14.467Z,5.47
2019-05-26T19:23:22.428Z,5.65
2019-05-26T19:25:30.427Z,5.28
2019-05-26T19:27:39.645Z,4.70
2019-05-26T19:29:47.665Z,4.67
2019-05-26T19:31:55.412Z,5.10
2019-05-26T19:34:03.337Z,5.20
2019-05-26T19:36:11.034Z,4.62
2019-05-26T19:38:18.928Z,4.70
2019-05-26T19:40:26.872Z,5.35
2019-05-26T19:42:34.416Z,5.35
2019-05-26T19:44:44.405Z,5.10
2019-05-26T19:46:53.755Z,5.15
2019-05-26T19:49:01.449Z,4.72
2019-05-26T19:51:09.239Z,4.67
2019-05-26T19:53:17.953Z,4.83
2019-05-26T19:55:25.490Z,4.83
2019-05-26T19:57:33.218Z,4.58
2019-05-26T19:59:43.043Z,4.35
2019-05-26T20:01:50.997Z,4.62
2019-05-26T20:03:59.741Z,4.72
2019-05-26T20:06:08.405Z,4.80
2019-05-26T20:08:16.373Z,4.70
2019-05-26T20:10:25.006Z,5.92
2019-05-26T20:12:33.726Z,6.08
2019-05-26T20:14:41.388Z,5.90
2019-05-26T20:16:50.294Z,5.45
2019-05-26T20:18:58.116Z,5.10
2019-05-26T20:21:06.049Z,5.65
2019-05-26T20:23:14.335Z,5.12
2019-05-26T20:25:22.257Z,5.35
2019-05-26T20:27:29.840Z,5.65
2019-05-26T20:29:37.925Z,5.72
2019-05-26T20:31:46.884Z,5.90
2019-05-26T20:33:54.668Z,6.10
2019-05-26T20:36:02.377Z,6.50
2019-05-26T20:38:10.991Z,5.80
2019-05-26T20:40:19.018Z,6.17
2019-05-26T20:42:27.119Z,6.30
2019-05-26T20:44:35.217Z,5.72
2019-05-26T20:46:44.587Z,5.35
2019-05-26T20:48:53.648Z,5.90
2019-05-26T20:51:01.824Z,5.45
2019-05-26T20:53:09.722Z,5.70
2019-05-26T20:55:19.013Z,5.97
2019-05-26T20:57:26.691Z,6.12
2019-05-26T20:59:34.250Z,5.85
2019-05-26T21:01:41.861Z,6.03
2019-05-26T21:03:50.015Z,6.10
2019-05-26T21:05:57.774Z,6.37
2019-05-26T21:08:05.402Z,6.00
2019-05-26T21:10:13.729Z,6.43
2019-05-26T21:12:21.847Z,5.92
2019-05-26T21:14:29.715Z,5.95
2019-05-26T21:16:37.524Z,6.15
2019-05-26T21:18:45.253Z,6.15
2019-05-26T21:20:52.855Z,6.28
2019-05-26T21:23:01.387Z,5.80
2019-05-26T21:25:13.914Z,6.93
2019-05-26T21:27:22.509Z,6.72
2019-05-26T21:29:30.086Z,6.62
2019-05-26T21:31:37.610Z,6.12
2019-05-26T21:33:45.042Z,6.22
2019-05-26T21:35:52.806Z,6.03
2019-05-26T21:38:00.381Z,6.00
2019-05-26T21:40:08.970Z,5.97
2019-05-26T21:42:16.396Z,5.95
2019-05-26T21:44:23.897Z,6.00
2019-05-26T21:46:31.415Z,5.65
2019-05-26T21:48:38.897Z,6.00
2019-05-26T21:50:46.556Z,5.75
2019-05-26T21:52:54.234Z,5.62
2019-05-26T21:55:01.843Z,5.50
2019-05-26T21:57:09.579Z,5.47
2019-05-26T21:59:17.001Z,5.53
2019-05-26T22:01:26.240Z,5.05
2019-05-26T22:03:33.821Z,5.87
2019-05-26T22:05:41.652Z,5.40
2019-05-26T22:07:49.278Z,5.42
2019-05-26T22:09:56.839Z,5.37
2019-05-26T22:12:04.251Z,5.20
2019-05-26T22:14:11.764Z,5.30
2019-05-26T22:16:19.310Z,5.90
2019-05-26T22:18:26.819Z,5.63
2019-05-26T22:20:34.314Z,5.60
2019-05-26T22:22:41.703Z,5.20
2019-05-26T22:24:49.203Z,5.53
2019-05-26T22:26:56.745Z,5.85
2019-05-26T22:29:05.049Z,5.60
2019-05-26T22:31:12.459Z,5.73
2019-05-26T22:33:20.086Z,5.33
2019-05-26T22:35:27.631Z,6.20
2019-05-26T22:37:35.086Z,5.30
2019-05-26T22:39:42.516Z,5.80
2019-05-26T22:41:49.981Z,5.70
2019-05-26T22:43:57.405Z,5.47
2019-05-26T22:46:04.992Z,5.35
2019-05-26T22:48:12.383Z,5.40
2019-05-26T22:50:20.309Z,5.70
2019-05-26T22:52:27.876Z,5.60
2019-05-26T22:54:35.753Z,5.23
2019-05-26T22:56:43.334Z,5.70
2019-05-26T22:58:50.847Z,5.50
2019-05-26T23:00:58.405Z,5.23
2019-05-26T23:03:06.114Z,5.77
2019-05-26T23:05:14.272Z,5.40
2019-05-26T23:07:21.882Z,5.77
2019-05-26T23:09:29.243Z,5.30
2019-05-26T23:11:36.767Z,5.43
2019-05-26T23:13:44.128Z,5.30
2019-05-26T23:15:51.715Z,5.50
2019-05-26T23:17:59.157Z,5.47
2019-05-26T23:20:07.388Z,5.47
2019-05-26T23:22:14.949Z,5.57
2019-05-26T23:24:22.412Z,5.80
2019-05-26T23:26:29.878Z,4.87
2019-05-26T23:28:37.338Z,4.90
2019-05-26T23:30:44.809Z,5.33
2019-05-26T23:32:52.332Z,5.10
2019-05-26T23:34:59.702Z,5.40
2019-05-26T23:37:07.399Z,5.83
2019-05-26T23:39:14.959Z,5.62
2019-05-26T23:41:22.406Z,5.53
2019-05-26T23:43:29.812Z,5.10
2019-05-26T23:45:37.369Z,5.60
2019-05-26T23:47:44.823Z,5.73
2019-05-26T23:49:52.257Z,5.37
2019-05-26T23:51:59.704Z,6.50
2019-05-26T23:54:07.259Z,6.27
2019-05-26T23:56:14.782Z,6.12
2019-05-26T23:58:22.253Z,7.00
